createdAt,value
2022-09-23T00:01:02.356Z,7.70
2022-09-23T00:03:31.664Z,8.52
2022-09-23T00:06:01.839Z,8.35
2022-09-23T00:08:30.213Z,9.02
2022-09-23T00:10:58.845Z,10.40
2022-09-23T00:13:27.049Z,10.00
2022-09-23T00:15:55.105Z,10.57
2022-09-23T00:18:23.032Z,11.50
2022-09-23T00:20:51.225Z,11.27
2022-09-23T00:23:23.686Z,10.93
2022-09-23T00:25:57.439Z,11.00
2022-09-23T00:28:26.047Z,11.55
2022-09-23T00:30:54.108Z,11.52
2022-09-23T00:33:22.285Z,10.60
2022-09-23T00:35:50.635Z,10.13
2022-09-23T00:38:19.360Z,9.43
2022-09-23T00:40:55.908Z,9.30
2022-09-23T00:43:39.139Z,9.00
2022-09-23T00:46:09.307Z,8.73
2022-09-23T00:48:39.914Z,8.52
2022-09-23T00:51:10.857Z,8.57
2022-09-23T00:53:39.777Z,8.77
2022-09-23T00:56:11.489Z,8.27
2022-09-23T00:58:42.919Z,8.35
2022-09-23T01:01:11.679Z,8.45
2022-09-23T01:03:39.791Z,7.90
2022-09-23T01:06:08.642Z,7.55
2022-09-23T01:08:37.611Z,7.88
2022-09-23T01:11:16.486Z,7.78
2022-09-23T01:13:54.117Z,7.78
2022-09-23T01:16:30.240Z,7.10
2022-09-23T01:19:09.336Z,7.07
2022-09-23T01:21:46.162Z,7.10
2022-09-23T01:24:41.686Z,7.40
2022-09-23T01:27:20.763Z,7.20
2022-09-23T01:30:18.617Z,6.95
2022-09-23T01:32:57.438Z,7.38
2022-09-23T01:35:31.390Z,8.60
2022-09-23T01:38:09.119Z,7.82
2022-09-23T01:40:48.227Z,8.35
2022-09-23T01:43:24.294Z,9.07
2022-09-23T01:45:56.438Z,8.60
2022-09-23T01:48:33.593Z,8.85
2022-09-23T01:51:07.484Z,8.90
2022-09-23T01:53:43.304Z,8.60
2022-09-23T01:56:17.092Z,8.75
2022-09-23T01:58:51.890Z,8.38
2022-09-23T02:01:25.710Z,8.80
2022-09-23T02:04:04.183Z,8.20
2022-09-23T02:06:37.234Z,8.75
2022-09-23T02:09:12.047Z,8.25
2022-09-23T02:11:43.571Z,8.43
2022-09-23T02:14:15.925Z,8.63
2022-09-23T02:16:47.901Z,8.63
2022-09-23T02:19:24.831Z,8.35
2022-09-23T02:21:58.922Z,8.23
2022-09-23T02:24:30.521Z,8.82
2022-09-23T02:27:07.031Z,7.72
2022-09-23T02:29:43.364Z,8.88
2022-09-23T02:32:18.348Z,8.88
2022-09-23T02:34:54.547Z,9.30
2022-09-23T02:37:29.781Z,9.73
2022-09-23T02:40:05.946Z,10.07
2022-09-23T02:42:40.039Z,9.43
2022-09-23T02:45:08.658Z,9.63
2022-09-23T02:47:39.736Z,10.07
2022-09-23T02:50:10.276Z,9.75
2022-09-23T02:52:39.006Z,9.73
2022-09-23T02:55:13.344Z,10.00
2022-09-23T02:57:41.621Z,10.23
2022-09-23T03:00:10.862Z,10.25
2022-09-23T03:02:59.075Z,10.73
2022-09-23T03:05:31.554Z,10.80
2022-09-23T03:08:20.020Z,10.25
2022-09-23T03:10:57.105Z,10.55
2022-09-23T03:13:32.224Z,10.35
2022-09-23T03:16:10.556Z,9.80
2022-09-23T03:18:42.274Z,9.40
2022-09-23T03:21:17.501Z,9.18
2022-09-23T03:23:48.296Z,9.13
2022-09-23T03:26:21.743Z,9.60
2022-09-23T03:28:51.342Z,9.50
2022-09-23T03:31:19.499Z,9.27
2022-09-23T03:33:51.395Z,9.82
2022-09-23T03:36:43.151Z,9.82
2022-09-23T03:39:16.023Z,10.18
2022-09-23T03:41:51.000Z,10.50
2022-09-23T03:44:19.539Z,10.13
2022-09-23T03:46:49.910Z,10.95
2022-09-23T03:49:19.991Z,11.38
2022-09-23T03:51:49.359Z,10.60
2022-09-23T03:54:19.733Z,10.95
2022-09-23T03:56:48.577Z,10.95
2022-09-23T03:59:17.137Z,10.73
2022-09-23T04:01:48.237Z,10.90
2022-09-23T04:04:16.401Z,11.50
2022-09-23T04:06:44.390Z,11.20
2022-09-23T04:09:14.257Z,11.25
2022-09-23T04:11:42.210Z,11.55
2022-09-23T04:14:12.157Z,10.85
2022-09-23T04:16:40.497Z,10.63
2022-09-23T04:19:11.755Z,11.00
2022-09-23T04:21:44.693Z,11.70
2022-09-23T04:24:14.774Z,10.98
2022-09-23T04:26:43.103Z,11.90
2022-09-23T04:29:12.032Z,11.10
2022-09-23T04:31:40.153Z,12.25
2022-09-23T04:34:08.305Z,11.70
2022-09-23T04:36:36.304Z,11.98
2022-09-23T04:39:04.974Z,11.13
2022-09-23T04:41:34.366Z,11.88
2022-09-23T04:44:03.080Z,12.65
2022-09-23T04:46:31.529Z,12.10
2022-09-23T04:48:59.661Z,13.68
2022-09-23T04:51:30.619Z,12.77
2022-09-23T04:53:58.772Z,12.75
2022-09-23T04:56:32.675Z,13.55
2022-09-23T04:59:02.770Z,13.23
2022-09-23T05:01:34.572Z,13.57
2022-09-23T05:04:05.726Z,13.80
2022-09-23T05:06:35.603Z,13.88
2022-09-23T05:09:06.140Z,14.30
2022-09-23T05:11:35.459Z,14.07
2022-09-23T05:14:04.871Z,15.10
2022-09-23T05:16:33.065Z,15.05
2022-09-23T05:19:01.256Z,15.15
2022-09-23T05:21:30.245Z,15.32
2022-09-23T05:24:00.856Z,14.38
2022-09-23T05:26:31.290Z,14.75
2022-09-23T05:28:59.711Z,13.60
2022-09-23T05:31:32.604Z,13.73
2022-09-23T05:34:02.371Z,13.70
2022-09-23T05:36:38.362Z,13.60
2022-09-23T05:39:08.166Z,13.70
2022-09-23T05:41:36.586Z,14.82
2022-09-23T05:44:04.857Z,14.20
2022-09-23T05:46:37.382Z,15.60
2022-09-23T05:49:06.191Z,14.18
2022-09-23T05:51:35.681Z,15.68
2022-09-23T05:54:05.412Z,15.38
2022-09-23T05:56:34.848Z,15.65
2022-09-23T05:59:04.033Z,16.08
2022-09-23T06:01:34.856Z,15.98
2022-09-23T06:04:06.454Z,15.05
2022-09-23T06:06:36.394Z,15.48
2022-09-23T06:09:05.429Z,13.93
2022-09-23T06:11:34.784Z,15.50
2022-09-23T06:14:03.903Z,14.38
2022-09-23T06:16:34.363Z,13.65
2022-09-23T06:19:07.288Z,15.50
2022-09-23T06:21:36.766Z,13.80
2022-09-23T06:24:06.415Z,13.20
2022-09-23T06:26:35.501Z,15.52
2022-09-23T06:29:06.174Z,15.15
2022-09-23T06:31:34.406Z,15.55
2022-09-23T06:34:10.600Z,15.80
2022-09-23T06:36:44.471Z,14.85
2022-09-23T06:39:14.392Z,15.93
2022-09-23T06:41:42.426Z,14.48
2022-09-23T06:44:13.735Z,15.05
2022-09-23T06:46:41.960Z,13.40
2022-09-23T06:49:13.021Z,12.65
2022-09-23T06:51:42.917Z,11.82
2022-09-23T06:54:11.248Z,12.43
2022-09-23T06:56:44.893Z,11.45
2022-09-23T06:59:16.928Z,11.55
2022-09-23T07:01:47.639Z,12.73
2022-09-23T07:04:15.896Z,12.07
2022-09-23T07:06:48.475Z,11.20
2022-09-23T07:09:16.535Z,10.75
2022-09-23T07:11:44.504Z,10.02
2022-09-23T07:14:12.728Z,10.15
2022-09-23T07:16:41.813Z,10.18
2022-09-23T07:19:10.725Z,9.77
2022-09-23T07:21:38.988Z,9.88
2022-09-23T07:24:08.641Z,10.05
2022-09-23T07:26:36.739Z,11.73
2022-09-23T07:29:05.964Z,12.95
2022-09-23T07:31:39.620Z,12.50
2022-09-23T07:34:09.993Z,12.88
2022-09-23T07:36:40.736Z,12.63
2022-09-23T07:39:12.502Z,10.45
2022-09-23T07:41:41.685Z,10.63
2022-09-23T07:44:11.825Z,10.75
2022-09-23T07:46:40.255Z,8.75
2022-09-23T07:49:08.435Z,9.65
2022-09-23T07:51:39.163Z,8.45
2022-09-23T07:54:11.501Z,9.43
2022-09-23T07:56:41.775Z,9.40
2022-09-23T07:59:15.478Z,8.60
2022-09-23T08:01:45.198Z,8.63
2022-09-23T08:04:17.242Z,7.95
2022-09-23T08:06:47.526Z,9.68
2022-09-23T08:09:17.093Z,8.18
2022-09-23T08:11:46.690Z,4.30
2022-09-23T08:14:17.927Z,3.88
2022-09-23T08:16:47.313Z,3.70
2022-09-23T08:19:15.776Z,4.10
2022-09-23T08:21:44.121Z,4.00
2022-09-23T08:24:15.357Z,2.20
2022-09-23T08:26:45.988Z,3.67
2022-09-23T08:29:19.833Z,3.40
2022-09-23T08:31:48.088Z,3.42
2022-09-23T08:34:16.037Z,3.08
2022-09-23T08:36:44.318Z,2.47
2022-09-23T08:39:15.837Z,4.65
2022-09-23T08:41:54.910Z,5.95
2022-09-23T08:44:33.422Z,3.08
2022-09-23T08:47:11.861Z,1.40
2022-09-23T08:49:46.647Z,1.35
2022-09-23T08:52:21.231Z,1.75
2022-09-23T08:54:54.523Z,2.15
2022-09-23T08:57:33.580Z,3.13
2022-09-23T09:00:04.304Z,7.47
2022-09-23T09:02:35.558Z,3.90
2022-09-23T09:05:08.012Z,2.72
2022-09-23T09:07:38.801Z,2.67
2022-09-23T09:10:16.635Z,1.92
2022-09-23T09:12:46.442Z,2.45
2022-09-23T09:15:20.894Z,2.75
2022-09-23T09:17:59.264Z,2.63
2022-09-23T09:20:36.343Z,2.40
2022-09-23T09:23:14.658Z,1.90
2022-09-23T09:25:45.666Z,2.30
2022-09-23T09:28:24.853Z,2.28
2022-09-23T09:30:58.155Z,2.20
2022-09-23T09:33:30.557Z,2.50
2022-09-23T09:36:09.079Z,3.00
2022-09-23T09:38:37.786Z,2.90
2022-09-23T09:41:14.927Z,2.83
2022-09-23T09:43:48.417Z,3.00
2022-09-23T09:46:29.405Z,3.00
2022-09-23T09:49:01.673Z,3.42
2022-09-23T09:51:30.488Z,3.35
2022-09-23T09:54:18.228Z,3.38
2022-09-23T09:59:23.033Z,2.17
2022-09-23T10:02:23.308Z,1.90
2022-09-23T10:04:58.156Z,2.00
2022-09-23T10:07:28.562Z,1.73
2022-09-23T10:10:01.917Z,2.50
2022-09-23T10:12:46.741Z,2.80
2022-09-23T10:15:30.923Z,2.40
2022-09-23T10:18:02.145Z,2.28
2022-09-23T10:20:38.101Z,2.03
2022-09-23T10:23:10.280Z,2.28
2022-09-23T10:25:38.641Z,1.63
2022-09-23T10:28:33.067Z,1.80
2022-09-23T10:31:09.955Z,1.70
2022-09-23T10:33:46.301Z,1.60
2022-09-23T10:36:16.079Z,1.50
2022-09-23T10:38:44.519Z,1.50
2022-09-23T10:41:42.370Z,1.10
2022-09-23T10:44:42.096Z,1.02
2022-09-23T10:47:20.552Z,1.10
2022-09-23T10:50:05.490Z,1.35
2022-09-23T10:52:45.677Z,1.10
2022-09-23T10:55:28.944Z,1.23
2022-09-23T10:58:20.432Z,1.10
2022-09-23T11:01:02.856Z,1.10
2022-09-23T11:04:14.021Z,1.10
2022-09-23T11:06:58.293Z,1.00
2022-09-23T11:09:34.503Z,1.23
2022-09-23T11:12:13.364Z,1.10
2022-09-23T11:14:59.374Z,1.13
2022-09-23T11:17:46.503Z,1.10
2022-09-23T11:20:30.201Z,1.42
2022-09-23T11:23:29.318Z,1.30
2022-09-23T11:26:09.721Z,1.20
2022-09-23T11:29:05.156Z,1.10
2022-09-23T11:31:47.302Z,1.38
2022-09-23T11:34:34.193Z,1.25
2022-09-23T11:37:05.910Z,1.30
2022-09-23T11:39:38.955Z,1.27
2022-09-23T11:42:14.365Z,1.30
2022-09-23T11:44:48.553Z,1.27
2022-09-23T11:47:22.898Z,1.10
2022-09-23T11:49:57.066Z,1.40
2022-09-23T11:52:31.464Z,1.10
2022-09-23T11:55:15.290Z,1.00
2022-09-23T11:57:51.633Z,1.00
2022-09-23T12:00:21.829Z,1.10
2022-09-23T12:03:05.713Z,0.93
2022-09-23T12:05:39.541Z,1.10
2022-09-23T12:08:16.309Z,1.00
2022-09-23T12:10:52.972Z,1.00
2022-09-23T12:13:27.654Z,1.17
2022-09-23T12:16:34.525Z,1.00
2022-09-23T12:19:15.107Z,0.98
2022-09-23T12:22:01.559Z,1.13
2022-09-23T12:24:48.922Z,1.10
2022-09-23T12:27:26.060Z,1.00
2022-09-23T12:29:58.908Z,1.23
2022-09-23T12:32:27.627Z,1.02
2022-09-23T12:34:56.457Z,1.13
2022-09-23T12:37:27.575Z,1.05
2022-09-23T12:40:00.059Z,0.95
2022-09-23T12:42:31.272Z,1.20
2022-09-23T12:45:19.241Z,1.15
2022-09-23T12:47:47.313Z,1.20
2022-09-23T12:50:53.852Z,1.10
2022-09-23T12:53:59.794Z,1.20
2022-09-23T12:56:50.057Z,1.10
2022-09-23T12:59:31.261Z,1.27
2022-09-23T13:02:17.696Z,1.02
2022-09-23T13:05:13.236Z,1.20
2022-09-23T13:07:46.899Z,1.10
2022-09-23T13:10:19.436Z,1.30
2022-09-23T13:12:48.353Z,1.27
2022-09-23T13:15:25.307Z,1.17
2022-09-23T13:17:53.413Z,1.77
2022-09-23T13:20:38.368Z,1.30
2022-09-23T13:23:22.552Z,1.38
2022-09-23T13:25:52.471Z,1.10
2022-09-23T13:28:32.711Z,1.40
2022-09-23T13:31:05.460Z,1.48
2022-09-23T13:33:40.142Z,1.20
2022-09-23T13:36:13.710Z,1.40
2022-09-23T13:38:42.528Z,1.45
2022-09-23T13:41:15.011Z,1.40
2022-09-23T13:43:45.613Z,1.20
2022-09-23T13:46:19.035Z,1.13
2022-09-23T13:48:49.112Z,1.30
2022-09-23T13:51:22.910Z,1.20
2022-09-23T13:53:55.519Z,1.20
2022-09-23T13:56:25.237Z,1.00
2022-09-23T13:58:53.663Z,1.38
2022-09-23T14:01:33.475Z,1.15
2022-09-23T14:04:03.136Z,1.30
2022-09-23T14:06:32.626Z,1.30
2022-09-23T14:09:02.909Z,1.20
2022-09-23T14:11:33.454Z,1.25
2022-09-23T14:14:06.042Z,1.30
2022-09-23T14:16:39.171Z,1.40
2022-09-23T14:19:07.970Z,1.33
2022-09-23T14:21:37.910Z,1.35
2022-09-23T14:24:18.466Z,1.60
2022-09-23T14:26:49.389Z,1.48
2022-09-23T14:29:20.408Z,1.17
2022-09-23T14:31:57.703Z,1.50
2022-09-23T14:34:47.111Z,1.20
2022-09-23T14:37:49.405Z,1.40
2022-09-23T14:40:20.623Z,1.40
2022-09-23T14:42:52.163Z,1.30
2022-09-23T14:45:23.556Z,1.73
2022-09-23T14:47:57.869Z,1.30
2022-09-23T14:50:40.712Z,1.48
2022-09-23T14:53:34.509Z,1.20
2022-09-23T14:56:15.061Z,1.48
2022-09-23T14:58:51.660Z,1.40
2022-09-23T15:01:38.681Z,1.50
2022-09-23T15:04:29.568Z,1.30
2022-09-23T15:07:04.560Z,1.38
2022-09-23T15:09:39.170Z,1.33
2022-09-23T15:12:09.488Z,1.30
2022-09-23T15:14:41.275Z,1.40
2022-09-23T15:17:25.205Z,1.33
2022-09-23T15:19:57.639Z,1.42
2022-09-23T15:22:26.707Z,1.30
2022-09-23T15:24:55.788Z,1.17
2022-09-23T15:27:34.774Z,1.50
2022-09-23T15:30:17.259Z,1.33
2022-09-23T15:32:45.826Z,1.52
2022-09-23T15:35:16.817Z,1.50
2022-09-23T15:37:46.069Z,1.48
2022-09-23T15:40:23.007Z,1.52
2022-09-23T15:42:53.543Z,1.40
2022-09-23T15:45:29.002Z,1.25
2022-09-23T15:48:02.790Z,1.17
2022-09-23T15:50:34.308Z,1.40
2022-09-23T15:53:02.518Z,1.40
2022-09-23T15:55:31.643Z,1.75
2022-09-23T15:57:59.739Z,1.70
2022-09-23T16:00:27.917Z,1.63
2022-09-23T16:02:56.027Z,1.75
2022-09-23T16:05:30.934Z,1.55
2022-09-23T16:08:03.739Z,1.73
2022-09-23T16:10:35.021Z,1.50
2022-09-23T16:13:05.193Z,1.60
2022-09-23T16:15:34.093Z,1.60
2022-09-23T16:18:02.465Z,1.60
2022-09-23T16:20:37.464Z,1.52
2022-09-23T16:23:13.763Z,1.70
2022-09-23T16:25:42.010Z,1.50
2022-09-23T16:28:11.848Z,1.60
2022-09-23T16:30:40.006Z,1.70
2022-09-23T16:33:07.958Z,1.38
2022-09-23T16:35:36.165Z,1.60
2022-09-23T16:38:04.471Z,1.60
2022-09-23T16:40:37.078Z,1.60
2022-09-23T16:43:05.551Z,1.95
2022-09-23T16:45:36.739Z,1.70
2022-09-23T16:48:06.958Z,1.95
2022-09-23T16:50:35.594Z,1.67
2022-09-23T16:53:03.564Z,2.08
2022-09-23T16:55:31.905Z,1.88
2022-09-23T16:58:01.319Z,1.90
2022-09-23T17:00:47.302Z,2.05
2022-09-23T17:03:33.169Z,2.53
2022-09-23T17:06:07.249Z,2.70
2022-09-23T17:08:36.232Z,2.22
2022-09-23T17:11:04.350Z,2.45
2022-09-23T17:13:33.862Z,2.83
2022-09-23T17:16:02.481Z,2.30
2022-09-23T17:18:30.971Z,2.65
2022-09-23T17:21:03.866Z,2.60
2022-09-23T17:23:33.520Z,2.67
2022-09-23T17:26:01.882Z,3.00
2022-09-23T17:28:29.971Z,3.03
2022-09-23T17:31:01.363Z,3.15
2022-09-23T17:33:32.229Z,2.72
2022-09-23T17:36:01.648Z,3.08
2022-09-23T17:38:29.892Z,3.10
2022-09-23T17:41:02.151Z,3.20
2022-09-23T17:43:31.112Z,2.90
2022-09-23T17:46:06.501Z,3.50
2022-09-23T17:48:36.576Z,2.83
2022-09-23T17:51:06.658Z,2.95
2022-09-23T17:53:37.055Z,3.10
2022-09-23T17:56:07.382Z,3.22
2022-09-23T17:58:37.470Z,3.17
2022-09-23T18:01:11.454Z,2.97
2022-09-23T18:03:43.342Z,3.35
2022-09-23T18:06:14.167Z,2.83
2022-09-23T18:08:44.022Z,2.70
2022-09-23T18:11:17.642Z,3.35
2022-09-23T18:13:50.069Z,3.40
2022-09-23T18:16:20.505Z,3.08
2022-09-23T18:18:52.720Z,3.05
2022-09-23T18:21:21.608Z,3.92
2022-09-23T18:23:50.517Z,3.55
2022-09-23T18:26:20.158Z,3.17
2022-09-23T18:28:48.648Z,3.60
2022-09-23T18:31:17.518Z,3.38
2022-09-23T18:33:50.672Z,3.58
2022-09-23T18:36:19.350Z,5.05
2022-09-23T18:38:47.630Z,5.07
2022-09-23T18:41:16.563Z,5.40
2022-09-23T18:43:48.502Z,4.65
2022-09-23T18:46:19.716Z,4.43
2022-09-23T18:49:07.206Z,4.43
2022-09-23T18:51:38.788Z,4.20
2022-09-23T18:54:08.745Z,3.50
2022-09-23T18:56:41.777Z,3.45
2022-09-23T18:59:12.651Z,3.50
2022-09-23T19:01:40.976Z,3.92
2022-09-23T19:04:10.890Z,3.40
2022-09-23T19:06:39.249Z,3.70
2022-09-23T19:09:08.491Z,3.20
2022-09-23T19:11:40.140Z,3.13
2022-09-23T19:14:11.719Z,3.40
2022-09-23T19:16:41.329Z,3.15
2022-09-23T19:19:10.991Z,3.63
2022-09-23T19:21:39.176Z,3.10
2022-09-23T19:24:08.732Z,3.13
2022-09-23T19:26:39.439Z,2.50
2022-09-23T19:29:08.981Z,2.90
2022-09-23T19:31:40.679Z,2.92
2022-09-23T19:34:14.478Z,2.88
2022-09-23T19:36:44.841Z,2.63
2022-09-23T19:39:17.426Z,2.80
2022-09-23T19:41:46.458Z,2.80
2022-09-23T19:44:15.366Z,2.42
2022-09-23T19:46:45.464Z,2.35
2022-09-23T19:49:15.241Z,2.60
2022-09-23T19:51:44.259Z,2.70
2022-09-23T19:54:12.965Z,2.67
2022-09-23T19:56:41.330Z,2.50
2022-09-23T19:59:09.509Z,2.45
2022-09-23T20:01:37.948Z,2.60
2022-09-23T20:04:06.444Z,2.58
2022-09-23T20:06:39.518Z,2.13
2022-09-23T20:09:07.787Z,2.30
2022-09-23T20:11:35.841Z,2.53
2022-09-23T20:14:06.151Z,2.45
2022-09-23T20:16:37.122Z,2.38
2022-09-23T20:19:06.061Z,2.70
2022-09-23T20:21:35.489Z,2.50
2022-09-23T20:24:07.017Z,2.45
2022-09-23T20:26:52.844Z,2.90
2022-09-23T20:29:20.982Z,2.78
2022-09-23T20:31:49.327Z,2.58
2022-09-23T20:34:21.280Z,2.50
2022-09-23T20:36:49.633Z,2.70
2022-09-23T20:39:18.994Z,2.92
2022-09-23T20:41:49.056Z,2.85
2022-09-23T20:44:17.082Z,2.75
2022-09-23T20:46:48.589Z,2.42
2022-09-23T20:49:17.410Z,2.83
2022-09-23T20:51:45.988Z,2.58
2022-09-23T20:54:14.082Z,2.72
2022-09-23T20:56:44.318Z,2.70
2022-09-23T20:59:17.619Z,2.88
2022-09-23T21:01:47.615Z,2.70
2022-09-23T21:04:16.080Z,2.90
2022-09-23T21:06:44.145Z,3.28
2022-09-23T21:09:12.166Z,3.40
2022-09-23T21:11:40.194Z,3.53
2022-09-23T21:14:10.050Z,4.28
2022-09-23T21:16:38.229Z,4.05
2022-09-23T21:19:08.021Z,2.97
2022-09-23T21:21:39.366Z,4.22
2022-09-23T21:24:39.752Z,3.88
2022-09-23T21:27:28.199Z,4.32
2022-09-23T21:29:58.345Z,4.47
2022-09-23T21:32:26.289Z,4.10
2022-09-23T21:34:54.346Z,4.38
2022-09-23T21:37:22.538Z,4.07
2022-09-23T21:40:10.837Z,3.72
2022-09-23T21:42:38.961Z,3.45
2022-09-23T21:45:09.380Z,3.67
2022-09-23T21:47:37.662Z,3.75
2022-09-23T21:50:06.652Z,3.30
2022-09-23T21:52:34.720Z,3.40
2022-09-23T21:55:06.407Z,4.15
2022-09-23T21:57:34.517Z,4.20
2022-09-23T22:00:03.162Z,4.38
2022-09-23T22:02:34.296Z,4.07
2022-09-23T22:05:02.414Z,4.15
2022-09-23T22:07:30.360Z,4.80
2022-09-23T22:09:58.426Z,5.15
2022-09-23T22:12:26.437Z,6.13
2022-09-23T22:14:54.533Z,6.88
2022-09-23T22:17:23.133Z,9.02
2022-09-23T22:19:53.873Z,9.07
2022-09-23T22:22:21.826Z,8.63
2022-09-23T22:24:50.064Z,9.50
2022-09-23T22:27:19.476Z,9.75
2022-09-23T22:30:05.538Z,11.38
2022-09-23T22:32:43.640Z,13.15
2022-09-23T22:35:16.699Z,13.43
2022-09-23T22:37:44.882Z,15.02
2022-09-23T22:40:15.318Z,15.95
2022-09-23T22:42:44.656Z,16.85
2022-09-23T22:45:13.437Z,17.67
2022-09-23T22:47:45.692Z,17.70
2022-09-23T22:50:16.028Z,17.65
2022-09-23T22:52:44.161Z,17.90
2022-09-23T22:55:13.063Z,18.33
2022-09-23T22:57:41.142Z,18.52
2022-09-23T23:02:57.692Z,18.58
2022-09-23T23:05:27.080Z,19.02
2022-09-23T23:07:55.061Z,18.63
2022-09-23T23:10:24.781Z,18.52
2022-09-23T23:12:56.703Z,18.95
2022-09-23T23:15:24.715Z,18.83
2022-09-23T23:17:57.323Z,19.35
2022-09-23T23:20:26.961Z,18.80
2022-09-23T23:22:54.968Z,19.40
2022-09-23T23:25:23.239Z,19.60
2022-09-23T23:27:51.206Z,20.27
2022-09-23T23:30:19.357Z,20.52
2022-09-23T23:32:47.382Z,20.63
2022-09-23T23:35:15.524Z,20.20
2022-09-23T23:37:44.863Z,19.98
2022-09-23T23:40:12.986Z,20.15
2022-09-23T23:42:40.964Z,21.13
2022-09-23T23:45:09.896Z,21.20
2022-09-23T23:47:38.728Z,20.88
2022-09-23T23:50:08.017Z,21.65
2022-09-23T23:52:36.057Z,21.23
2022-09-23T23:55:06.311Z,21.90
2022-09-23T23:57:34.291Z,21.90
